sensor_id;sensor_type;location;lat;lon;timestamp;pressure;altitude;pressure_sealevel;temperature;humidity
65546;BME280;52177;55.968;37.498;2023-05-21T00:00:12;100378.03;;;11.14;78.24
65546;BME280;52177;55.968;37.498;2023-05-21T00:00:43;100382.50;;;11.14;78.21
65546;BME280;52177;55.968;37.498;2023-05-21T00:01:13;100372.03;;;11.12;78.21
65546;BME280;52177;55.968;37.498;2023-05-21T00:01:45;100378.19;;;11.13;78.26
65546;BME280;52177;55.968;37.498;2023-05-21T00:02:17;100382.69;;;11.12;78.31
65546;BME280;52177;55.968;37.498;2023-05-21T00:02:48;100380.19;;;11.11;78.20
65546;BME280;52177;55.968;37.498;2023-05-21T00:03:20;100378.53;;;11.10;78.40
65546;BME280;52177;55.968;37.498;2023-05-21T00:03:51;100370.81;;;11.07;78.42
65546;BME280;52177;55.968;37.498;2023-05-21T00:04:21;100380.50;;;11.08;78.55
65546;BME280;52177;55.968;37.498;2023-05-21T00:04:51;100376.00;;;11.08;78.64
65546;BME280;52177;55.968;37.498;2023-05-21T00:05:22;100375.84;;;11.10;78.79
65546;BME280;52177;55.968;37.498;2023-05-21T00:05:53;100370.34;;;11.11;78.64
65546;BME280;52177;55.968;37.498;2023-05-21T00:06:23;100374.84;;;11.11;78.71
65546;BME280;52177;55.968;37.498;2023-05-21T00:06:54;100382.69;;;11.12;78.80
65546;BME280;52177;55.968;37.498;2023-05-21T00:07:24;100371.16;;;11.12;78.74
65546;BME280;52177;55.968;37.498;2023-05-21T00:07:54;100375.66;;;11.11;78.74
65546;BME280;52177;55.968;37.498;2023-05-21T00:08:25;100373.19;;;11.10;78.98
65546;BME280;52177;55.968;37.498;2023-05-21T00:08:55;100372.03;;;11.12;78.93
65546;BME280;52177;55.968;37.498;2023-05-21T00:09:25;100372.03;;;11.12;78.82
65546;BME280;52177;55.968;37.498;2023-05-21T00:09:56;100371.00;;;11.13;78.82
65546;BME280;52177;55.968;37.498;2023-05-21T00:10:26;100370.19;;;11.13;78.72
65546;BME280;52177;55.968;37.498;2023-05-21T00:10:57;100365.81;;;11.12;78.76
65546;BME280;52177;55.968;37.498;2023-05-21T00:11:27;100368.34;;;11.13;78.64
65546;BME280;52177;55.968;37.498;2023-05-21T00:11:57;100374.50;;;11.14;78.58
65546;BME280;52177;55.968;37.498;2023-05-21T00:12:28;100370.34;;;11.11;78.64
65546;BME280;52177;55.968;37.498;2023-05-21T00:12:58;100370.66;;;11.08;78.63
65546;BME280;52177;55.968;37.498;2023-05-21T00:13:28;100369.84;;;11.08;78.47
65546;BME280;52177;55.968;37.498;2023-05-21T00:13:59;100360.16;;;11.07;78.53
65546;BME280;52177;55.968;37.498;2023-05-21T00:14:29;100366.66;;;11.04;78.74
65546;BME280;52177;55.968;37.498;2023-05-21T00:15:00;100365.97;;;11.02;78.84
65546;BME280;52177;55.968;37.498;2023-05-21T00:15:30;100363.50;;;11.01;79.10
65546;BME280;52177;55.968;37.498;2023-05-21T00:16:01;100368.97;;;10.99;79.28
65546;BME280;52177;55.968;37.498;2023-05-21T00:16:31;100367.13;;;10.99;79.70
65546;BME280;52177;55.968;37.498;2023-05-21T00:17:01;100366.31;;;10.99;79.94
65546;BME280;52177;55.968;37.498;2023-05-21T00:17:32;100362.63;;;11.00;80.10
65546;BME280;52177;55.968;37.498;2023-05-21T00:18:03;100370.47;;;11.02;80.25
65546;BME280;52177;55.968;37.498;2023-05-21T00:18:34;100363.97;;;11.04;80.43
65546;BME280;52177;55.968;37.498;2023-05-21T00:19:04;100370.16;;;11.05;80.43
65546;BME280;52177;55.968;37.498;2023-05-21T00:19:35;100371.84;;;11.06;80.40
65546;BME280;52177;55.968;37.498;2023-05-21T00:20:06;100372.66;;;11.06;80.49
65546;BME280;52177;55.968;37.498;2023-05-21T00:20:39;100373.50;;;11.07;80.37
65546;BME280;52177;55.968;37.498;2023-05-21T00:21:10;100378.00;;;11.06;80.30
65546;BME280;52177;55.968;37.498;2023-05-21T00:21:41;100377.00;;;11.07;80.38
65546;BME280;52177;55.968;37.498;2023-05-21T00:22:11;100364.50;;;11.08;80.27
65546;BME280;52177;55.968;37.498;2023-05-21T00:22:43;100368.97;;;11.07;80.27
65546;BME280;52177;55.968;37.498;2023-05-21T00:23:13;100366.31;;;11.07;80.26
65546;BME280;52177;55.968;37.498;2023-05-21T00:23:51;100368.84;;;11.09;80.25
65546;BME280;52177;55.968;37.498;2023-05-21T00:24:23;100370.53;;;11.10;80.28
65546;BME280;52177;55.968;37.498;2023-05-21T00:24:53;100368.69;;;11.10;80.37
65546;BME280;52177;55.968;37.498;2023-05-21T00:25:23;100377.19;;;11.14;80.38
65546;BME280;52177;55.968;37.498;2023-05-21T00:25:54;100375.19;;;11.16;80.47
65546;BME280;52177;55.968;37.498;2023-05-21T00:26:25;100374.19;;;11.17;80.45
65546;BME280;52177;55.968;37.498;2023-05-21T00:26:55;100371.34;;;11.18;80.51
65546;BME280;52177;55.968;37.498;2023-05-21T00:27:26;100375.53;;;11.21;80.58
65546;BME280;52177;55.968;37.498;2023-05-21T00:27:56;100373.72;;;11.22;80.62
65546;BME280;52177;55.968;37.498;2023-05-21T00:28:27;100377.22;;;11.22;80.69
65546;BME280;52177;55.968;37.498;2023-05-21T00:28:57;100378.88;;;11.23;80.79
65546;BME280;52177;55.968;37.498;2023-05-21T00:29:27;100376.19;;;11.23;80.84
65546;BME280;52177;55.968;37.498;2023-05-21T00:29:59;100374.34;;;11.24;80.56
65546;BME280;52177;55.968;37.498;2023-05-21T00:30:29;100381.38;;;11.25;80.66
65546;BME280;52177;55.968;37.498;2023-05-21T00:31:00;100376.88;;;11.25;80.69
65546;BME280;52177;55.968;37.498;2023-05-21T00:31:30;100375.03;;;11.26;80.63
65546;BME280;52177;55.968;37.498;2023-05-21T00:32:01;100373.22;;;11.26;80.73
65546;BME280;52177;55.968;37.498;2023-05-21T00:32:31;100370.56;;;11.26;80.48
65546;BME280;52177;55.968;37.498;2023-05-21T00:33:01;100373.22;;;11.26;80.54
65546;BME280;52177;55.968;37.498;2023-05-21T00:33:33;100370.38;;;11.28;80.49
65546;BME280;52177;55.968;37.498;2023-05-21T00:34:03;100368.53;;;11.28;80.52
65546;BME280;52177;55.968;37.498;2023-05-21T00:34:34;100361.53;;;11.27;80.35
65546;BME280;52177;55.968;37.498;2023-05-21T00:35:05;100364.53;;;11.24;80.11
65546;BME280;52177;55.968;37.498;2023-05-21T00:35:36;100371.69;;;11.24;80.08
65546;BME280;52177;55.968;37.498;2023-05-21T00:36:06;100368.19;;;11.23;80.30
65546;BME280;52177;55.968;37.498;2023-05-21T00:36:37;100366.19;;;11.25;80.42
65546;BME280;52177;55.968;37.498;2023-05-21T00:37:09;100367.03;;;11.26;80.58
65546;BME280;52177;55.968;37.498;2023-05-21T00:37:39;100369.69;;;11.26;80.46
65546;BME280;52177;55.968;37.498;2023-05-21T00:38:10;100366.19;;;11.25;80.44
65546;BME280;52177;55.968;37.498;2023-05-21T00:38:41;100363.53;;;11.25;80.42
65546;BME280;52177;55.968;37.498;2023-05-21T00:39:14;100366.19;;;11.25;80.50
65546;BME280;52177;55.968;37.498;2023-05-21T00:39:45;100366.19;;;11.25;80.38
65546;BME280;52177;55.968;37.498;2023-05-21T00:40:17;100369.88;;;11.24;80.27
65546;BME280;52177;55.968;37.498;2023-05-21T00:40:48;100364.69;;;11.23;80.22
65546;BME280;52177;55.968;37.498;2023-05-21T00:41:18;100362.19;;;11.21;80.28
65546;BME280;52177;55.968;37.498;2023-05-21T00:41:49;100366.69;;;11.20;80.18
65546;BME280;52177;55.968;37.498;2023-05-21T00:42:19;100366.84;;;11.19;80.13
65546;BME280;52177;55.968;37.498;2023-05-21T00:42:49;100365.19;;;11.18;80.21
65546;BME280;52177;55.968;37.498;2023-05-21T00:43:20;100364.16;;;11.19;80.16
65546;BME280;52177;55.968;37.498;2023-05-21T00:43:55;100362.50;;;11.18;80.20
65546;BME280;52177;55.968;37.498;2023-05-21T00:44:26;100361.69;;;11.17;80.22
65546;BME280;52177;55.968;37.498;2023-05-21T00:45:03;100360.84;;;11.17;80.24
65546;BME280;52177;55.968;37.498;2023-05-21T00:45:34;100368.88;;;11.17;80.20
65546;BME280;52177;55.968;37.498;2023-05-21T00:46:12;100363.69;;;11.15;80.12
65546;BME280;52177;55.968;37.498;2023-05-21T00:46:45;100359.50;;;11.13;80.22
65546;BME280;52177;55.968;37.498;2023-05-21T00:47:17;100356.84;;;11.13;80.30
65546;BME280;52177;55.968;37.498;2023-05-21T00:47:50;100362.19;;;11.13;80.39
65546;BME280;52177;55.968;37.498;2023-05-21T00:48:23;100366.69;;;11.12;80.51
65546;BME280;52177;55.968;37.498;2023-05-21T00:48:55;100362.19;;;11.13;80.50
65546;BME280;52177;55.968;37.498;2023-05-21T00:49:27;100356.84;;;11.13;80.60
65546;BME280;52177;55.968;37.498;2023-05-21T00:49:58;100361.16;;;11.14;80.71
65546;BME280;52177;55.968;37.498;2023-05-21T00:50:29;100363.84;;;11.14;80.67
65546;BME280;52177;55.968;37.498;2023-05-21T00:51:01;100361.16;;;11.14;80.64
65546;BME280;52177;55.968;37.498;2023-05-21T00:51:31;100357.66;;;11.13;80.69
65546;BME280;52177;55.968;37.498;2023-05-21T00:52:02;100359.34;;;11.14;80.66
65546;BME280;52177;55.968;37.498;2023-05-21T00:52:32;100359.34;;;11.14;80.75
65546;BME280;52177;55.968;37.498;2023-05-21T00:53:11;100359.34;;;11.14;80.77
65546;BME280;52177;55.968;37.498;2023-05-21T00:53:43;100361.16;;;11.14;80.83
65546;BME280;52177;55.968;37.498;2023-05-21T00:54:14;100361.16;;;11.14;80.86
65546;BME280;52177;55.968;37.498;2023-05-21T00:54:46;100359.34;;;11.14;80.78
65546;BME280;52177;55.968;37.498;2023-05-21T00:55:17;100359.34;;;11.14;80.69
65546;BME280;52177;55.968;37.498;2023-05-21T00:55:49;100362.84;;;11.15;80.71
65546;BME280;52177;55.968;37.498;2023-05-21T00:56:19;100360.84;;;11.17;80.71
65546;BME280;52177;55.968;37.498;2023-05-21T00:56:51;100353.69;;;11.17;80.85
65546;BME280;52177;55.968;37.498;2023-05-21T00:57:24;100361.50;;;11.19;80.83
65546;BME280;52177;55.968;37.498;2023-05-21T00:57:56;100365.03;;;11.19;80.78
65546;BME280;52177;55.968;37.498;2023-05-21T00:58:27;100357.03;;;11.19;80.73
65546;BME280;52177;55.968;37.498;2023-05-21T00:58:58;100359.69;;;11.19;80.59
65546;BME280;52177;55.968;37.498;2023-05-21T00:59:28;100359.50;;;11.21;80.59
65546;BME280;52177;55.968;37.498;2023-05-21T00:59:59;100363.88;;;11.22;80.51
65546;BME280;52177;55.968;37.498;2023-05-21T01:00:33;100355.66;;;11.24;80.39
65546;BME280;52177;55.968;37.498;2023-05-21T01:01:03;100358.53;;;11.22;80.37
65546;BME280;52177;55.968;37.498;2023-05-21T01:01:35;100359.34;;;11.23;80.24
65546;BME280;52177;55.968;37.498;2023-05-21T01:02:06;100358.69;;;11.20;80.28
65546;BME280;52177;55.968;37.498;2023-05-21T01:02:38;100361.50;;;11.19;80.51
65546;BME280;52177;55.968;37.498;2023-05-21T01:03:08;100364.16;;;11.19;80.49
65546;BME280;52177;55.968;37.498;2023-05-21T01:03:39;100368.53;;;11.20;80.43
65546;BME280;52177;55.968;37.498;2023-05-21T01:04:10;100360.38;;;11.22;80.13
65546;BME280;52177;55.968;37.498;2023-05-21T01:04:41;100356.16;;;11.19;80.11
65546;BME280;52177;55.968;37.498;2023-05-21T01:05:12;100361.50;;;11.19;80.22
65546;BME280;52177;55.968;37.498;2023-05-21T01:05:44;100368.88;;;11.17;80.24
65546;BME280;52177;55.968;37.498;2023-05-21T01:06:16;100361.00;;;11.15;80.28
65546;BME280;52177;55.968;37.498;2023-05-21T01:06:46;100363.69;;;11.15;80.35
65546;BME280;52177;55.968;37.498;2023-05-21T01:07:16;100360.19;;;11.15;80.45
65546;BME280;52177;55.968;37.498;2023-05-21T01:07:47;100355.81;;;11.14;80.50
65546;BME280;52177;55.968;37.498;2023-05-21T01:08:19;100363.00;;;11.13;80.61
65546;BME280;52177;55.968;37.498;2023-05-21T01:08:50;100367.38;;;11.14;80.76
65546;BME280;52177;55.968;37.498;2023-05-21T01:09:21;100376.19;;;11.15;80.93
65546;BME280;52177;55.968;37.498;2023-05-21T01:09:51;100366.19;;;11.17;80.88
65546;BME280;52177;55.968;37.498;2023-05-21T01:10:24;100369.69;;;11.17;80.78
65546;BME280;52177;55.968;37.498;2023-05-21T01:10:56;100367.84;;;11.18;80.60
65546;BME280;52177;55.968;37.498;2023-05-21T01:11:40;100364.34;;;11.17;80.80
65546;BME280;52177;55.968;37.498;2023-05-21T01:12:12;100366.84;;;11.19;80.75
65546;BME280;52177;55.968;37.498;2023-05-21T01:12:43;100365.03;;;11.19;80.63
65546;BME280;52177;55.968;37.498;2023-05-21T01:13:15;100365.03;;;11.19;80.60
65546;BME280;52177;55.968;37.498;2023-05-21T01:13:46;100368.53;;;11.20;80.62
65546;BME280;52177;55.968;37.498;2023-05-21T01:14:18;100367.69;;;11.19;80.45
65546;BME280;52177;55.968;37.498;2023-05-21T01:14:49;100368.53;;;11.20;80.53
65546;BME280;52177;55.968;37.498;2023-05-21T01:15:20;100363.19;;;11.20;80.54
65546;BME280;52177;55.968;37.498;2023-05-21T01:15:51;100364.03;;;11.20;80.59
65546;BME280;52177;55.968;37.498;2023-05-21T01:16:22;100364.84;;;11.21;80.71
65546;BME280;52177;55.968;37.498;2023-05-21T01:16:53;100362.19;;;11.21;80.79
65546;BME280;52177;55.968;37.498;2023-05-21T01:17:26;100362.19;;;11.21;80.62
65546;BME280;52177;55.968;37.498;2023-05-21T01:17:56;100367.50;;;11.21;80.69
65546;BME280;52177;55.968;37.498;2023-05-21T01:18:27;100357.69;;;11.22;80.76
65546;BME280;52177;55.968;37.498;2023-05-21T01:18:58;100363.88;;;11.22;80.91
65546;BME280;52177;55.968;37.498;2023-05-21T01:19:29;100370.69;;;11.25;80.95
65546;BME280;52177;55.968;37.498;2023-05-21T01:20:02;100363.69;;;11.24;81.00
65546;BME280;52177;55.968;37.498;2023-05-21T01:20:39;100365.38;;;11.25;81.01
65546;BME280;52177;55.968;37.498;2023-05-21T01:21:12;100362.84;;;11.23;81.02
65546;BME280;52177;55.968;37.498;2023-05-21T01:21:50;100359.00;;;11.26;80.94
65546;BME280;52177;55.968;37.498;2023-05-21T01:22:22;100363.53;;;11.25;80.98
65546;BME280;52177;55.968;37.498;2023-05-21T01:22:54;100358.03;;;11.27;81.03
65546;BME280;52177;55.968;37.498;2023-05-21T01:23:25;100365.84;;;11.28;80.98
65546;BME280;52177;55.968;37.498;2023-05-21T01:23:56;100360.50;;;11.28;80.87
65546;BME280;52177;55.968;37.498;2023-05-21T01:24:27;100359.53;;;11.29;80.81
65546;BME280;52177;55.968;37.498;2023-05-21T01:24:57;100360.38;;;11.30;80.83
65546;BME280;52177;55.968;37.498;2023-05-21T01:25:28;100359.53;;;11.29;80.72
65546;BME280;52177;55.968;37.498;2023-05-21T01:25:58;100358.53;;;11.30;80.76
65546;BME280;52177;55.968;37.498;2023-05-21T01:26:28;100362.22;;;11.29;80.82
65546;BME280;52177;55.968;37.498;2023-05-21T01:27:01;100367.53;;;11.29;80.81
65546;BME280;52177;55.968;37.498;2023-05-21T01:27:32;100363.88;;;11.30;80.90
65546;BME280;52177;55.968;37.498;2023-05-21T01:28:02;100363.03;;;11.30;81.05
65546;BME280;52177;55.968;37.498;2023-05-21T01:28:33;100363.03;;;11.30;80.93
65546;BME280;52177;55.968;37.498;2023-05-21T01:29:04;100364.72;;;11.31;81.01
65546;BME280;52177;55.968;37.498;2023-05-21T01:29:35;100367.38;;;11.31;80.99
65546;BME280;52177;55.968;37.498;2023-05-21T01:30:06;100365.53;;;11.31;81.04
65546;BME280;52177;55.968;37.498;2023-05-21T01:30:38;100364.72;;;11.31;80.90
65546;BME280;52177;55.968;37.498;2023-05-21T01:31:29;100371.38;;;11.27;80.79
65546;BME280;52177;55.968;37.498;2023-05-21T01:32:10;100370.69;;;11.25;81.21
65546;BME280;52177;55.968;37.498;2023-05-21T01:33:08;100373.38;;;11.25;81.43
65546;BME280;52177;55.968;37.498;2023-05-21T01:33:46;100375.88;;;11.26;81.62
65546;BME280;52177;55.968;37.498;2023-05-21T01:34:22;100372.22;;;11.27;81.74
65546;BME280;52177;55.968;37.498;2023-05-21T01:35:54;100370.22;;;11.29;81.83
65546;BME280;52177;55.968;37.498;2023-05-21T01:36:31;100366.53;;;11.30;81.63
65546;BME280;52177;55.968;37.498;2023-05-21T01:37:26;100377.22;;;11.30;81.53
65546;BME280;52177;55.968;37.498;2023-05-21T01:38:48;100370.69;;;11.33;81.53
65546;BME280;52177;55.968;37.498;2023-05-21T01:39:30;100372.06;;;11.29;81.25
65546;BME280;52177;55.968;37.498;2023-05-21T01:40:22;100374.72;;;11.29;81.41
65546;BME280;52177;55.968;37.498;2023-05-21T01:40:59;100367.38;;;11.31;81.40
65546;BME280;52177;55.968;37.498;2023-05-21T01:41:36;100363.72;;;11.32;81.30
65546;BME280;52177;55.968;37.498;2023-05-21T01:42:09;100366.53;;;11.30;81.14
65546;BME280;52177;55.968;37.498;2023-05-21T01:42:42;100368.38;;;11.30;81.26
65546;BME280;52177;55.968;37.498;2023-05-21T01:43:14;100368.22;;;11.31;81.25
65546;BME280;52177;55.968;37.498;2023-05-21T01:43:46;100368.22;;;11.31;81.46
65546;BME280;52177;55.968;37.498;2023-05-21T01:44:17;100367.19;;;11.32;81.31
65546;BME280;52177;55.968;37.498;2023-05-21T01:44:54;100367.19;;;11.32;81.41
65546;BME280;52177;55.968;37.498;2023-05-21T01:45:26;100371.56;;;11.33;81.47
65546;BME280;52177;55.968;37.498;2023-05-21T01:45:58;100369.72;;;11.34;81.71
65546;BME280;52177;55.968;37.498;2023-05-21T01:46:32;100374.22;;;11.33;81.67
65546;BME280;52177;55.968;37.498;2023-05-21T01:47:04;100367.06;;;11.34;81.74
65546;BME280;52177;55.968;37.498;2023-05-21T01:47:36;100370.53;;;11.34;81.87
65546;BME280;52177;55.968;37.498;2023-05-21T01:48:08;100371.56;;;11.33;81.67
65546;BME280;52177;55.968;37.498;2023-05-21T01:48:40;100375.06;;;11.34;81.75
65546;BME280;52177;55.968;37.498;2023-05-21T01:49:11;100372.38;;;11.34;81.72
65546;BME280;52177;55.968;37.498;2023-05-21T01:49:42;100372.19;;;11.35;81.81
65546;BME280;52177;55.968;37.498;2023-05-21T01:50:13;100372.38;;;11.34;81.65
65546;BME280;52177;55.968;37.498;2023-05-21T01:50:44;100369.72;;;11.34;81.74
65546;BME280;52177;55.968;37.498;2023-05-21T01:51:15;100366.88;;;11.35;81.80
65546;BME280;52177;55.968;37.498;2023-05-21T01:51:47;100380.22;;;11.35;81.74
65546;BME280;52177;55.968;37.498;2023-05-21T01:52:17;100372.88;;;11.37;81.63
65546;BME280;52177;55.968;37.498;2023-05-21T01:52:51;100371.22;;;11.36;81.59
65546;BME280;52177;55.968;37.498;2023-05-21T01:53:22;100376.41;;;11.38;81.64
65546;BME280;52177;55.968;37.498;2023-05-21T01:53:53;100371.22;;;11.36;81.59
65546;BME280;52177;55.968;37.498;2023-05-21T01:54:23;100373.06;;;11.36;81.55
65546;BME280;52177;55.968;37.498;2023-05-21T01:54:56;100377.38;;;11.37;81.60
65546;BME280;52177;55.968;37.498;2023-05-21T01:55:26;100370.41;;;11.36;81.46
65546;BME280;52177;55.968;37.498;2023-05-21T01:55:57;100372.06;;;11.37;81.56
65546;BME280;52177;55.968;37.498;2023-05-21T01:56:28;100367.72;;;11.36;81.64
65546;BME280;52177;55.968;37.498;2023-05-21T01:56:58;100369.38;;;11.37;81.55
65546;BME280;52177;55.968;37.498;2023-05-21T01:57:29;100374.56;;;11.38;81.61
65546;BME280;52177;55.968;37.498;2023-05-21T01:57:59;100376.22;;;11.39;81.70
65546;BME280;52177;55.968;37.498;2023-05-21T01:58:29;100373.56;;;11.39;81.56
65546;BME280;52177;55.968;37.498;2023-05-21T01:59:00;100377.22;;;11.38;81.53
65546;BME280;52177;55.968;37.498;2023-05-21T01:59:30;100370.88;;;11.39;81.51
65546;BME280;52177;55.968;37.498;2023-05-21T02:00:01;100370.72;;;11.41;81.51
65546;BME280;52177;55.968;37.498;2023-05-21T02:00:31;100380.56;;;11.40;81.49
65546;BME280;52177;55.968;37.498;2023-05-21T02:01:03;100372.56;;;11.40;81.39
65546;BME280;52177;55.968;37.498;2023-05-21T02:01:34;100374.38;;;11.40;81.30
65546;BME280;52177;55.968;37.498;2023-05-21T02:02:04;100371.91;;;11.38;81.29
65546;BME280;52177;55.968;37.498;2023-05-21T02:02:35;100378.88;;;11.39;81.41
65546;BME280;52177;55.968;37.498;2023-05-21T02:03:05;100367.38;;;11.39;81.59
65546;BME280;52177;55.968;37.498;2023-05-21T02:03:35;100370.88;;;11.39;81.57
65546;BME280;52177;55.968;37.498;2023-05-21T02:04:07;100372.56;;;11.40;81.69
65546;BME280;52177;55.968;37.498;2023-05-21T02:04:38;100373.25;;;11.43;81.86
65546;BME280;52177;55.968;37.498;2023-05-21T02:05:10;100370.56;;;11.43;81.85
65546;BME280;52177;55.968;37.498;2023-05-21T02:05:40;100374.91;;;11.44;81.85
65546;BME280;52177;55.968;37.498;2023-05-21T02:06:11;100375.56;;;11.46;81.83
65546;BME280;52177;55.968;37.498;2023-05-21T02:06:41;100370.22;;;11.46;81.90
65546;BME280;52177;55.968;37.498;2023-05-21T02:07:11;100380.75;;;11.47;81.87
65546;BME280;52177;55.968;37.498;2023-05-21T02:07:44;100373.56;;;11.48;81.82
65546;BME280;52177;55.968;37.498;2023-05-21T02:08:15;100369.88;;;11.49;81.87
65546;BME280;52177;55.968;37.498;2023-05-21T02:08:45;100376.25;;;11.48;81.88
65546;BME280;52177;55.968;37.498;2023-05-21T02:09:17;100369.06;;;11.48;81.84
65546;BME280;52177;55.968;37.498;2023-05-21T02:09:47;100379.59;;;11.50;81.86
65546;BME280;52177;55.968;37.498;2023-05-21T02:10:18;100368.03;;;11.49;81.68
65546;BME280;52177;55.968;37.498;2023-05-21T02:10:49;100365.22;;;11.51;81.70
65546;BME280;52177;55.968;37.498;2023-05-21T02:11:19;100369.72;;;11.50;81.60
65546;BME280;52177;55.968;37.498;2023-05-21T02:11:49;100361.72;;;11.50;81.59
65546;BME280;52177;55.968;37.498;2023-05-21T02:12:20;100367.06;;;11.50;81.55
65546;BME280;52177;55.968;37.498;2023-05-21T02:12:50;100364.56;;;11.49;81.52
65546;BME280;52177;55.968;37.498;2023-05-21T02:13:20;100369.06;;;11.48;81.43
65546;BME280;52177;55.968;37.498;2023-05-21T02:13:52;100369.06;;;11.48;81.55
65546;BME280;52177;55.968;37.498;2023-05-21T02:14:23;100365.38;;;11.49;81.27
65546;BME280;52177;55.968;37.498;2023-05-21T02:14:56;100367.22;;;11.49;81.55
65546;BME280;52177;55.968;37.498;2023-05-21T02:15:26;100364.56;;;11.49;81.58
65546;BME280;52177;55.968;37.498;2023-05-21T02:15:57;100369.06;;;11.48;81.61
65546;BME280;52177;55.968;37.498;2023-05-21T02:16:27;100358.38;;;11.48;81.67
65546;BME280;52177;55.968;37.498;2023-05-21T02:16:59;100362.72;;;11.49;81.53
65546;BME280;52177;55.968;37.498;2023-05-21T02:17:29;100364.56;;;11.49;81.58
65546;BME280;52177;55.968;37.498;2023-05-21T02:18:02;100361.22;;;11.47;81.45
65546;BME280;52177;55.968;37.498;2023-05-21T02:18:33;100369.56;;;11.44;81.41
65546;BME280;52177;55.968;37.498;2023-05-21T02:19:05;100364.88;;;11.46;81.54
65546;BME280;52177;55.968;37.498;2023-05-21T02:19:35;100368.53;;;11.45;81.46
65546;BME280;52177;55.968;37.498;2023-05-21T02:20:06;100369.56;;;11.44;81.47
65546;BME280;52177;55.968;37.498;2023-05-21T02:20:43;100364.22;;;11.44;81.59
65546;BME280;52177;55.968;37.498;2023-05-21T02:21:13;100367.72;;;11.44;81.54
65546;BME280;52177;55.968;37.498;2023-05-21T02:21:44;100364.38;;;11.42;81.46
65546;BME280;52177;55.968;37.498;2023-05-21T02:22:15;100365.38;;;11.41;81.51
65546;BME280;52177;55.968;37.498;2023-05-21T02:22:46;100368.06;;;11.41;81.54
65546;BME280;52177;55.968;37.498;2023-05-21T02:23:17;100359.38;;;11.39;81.52
65546;BME280;52177;55.968;37.498;2023-05-21T02:23:47;100369.03;;;11.40;81.50
65546;BME280;52177;55.968;37.498;2023-05-21T02:24:18;100360.19;;;11.39;81.51
65546;BME280;52177;55.968;37.498;2023-05-21T02:24:48;100364.56;;;11.40;81.72
65546;BME280;52177;55.968;37.498;2023-05-21T02:25:18;100369.91;;;11.40;81.60
65546;BME280;52177;55.968;37.498;2023-05-21T02:25:49;100363.69;;;11.40;81.59
65546;BME280;52177;55.968;37.498;2023-05-21T02:26:19;100365.38;;;11.41;81.58
65546;BME280;52177;55.968;37.498;2023-05-21T02:26:51;100364.56;;;11.40;81.66
65546;BME280;52177;55.968;37.498;2023-05-21T02:27:22;100362.03;;;11.39;81.59
65546;BME280;52177;55.968;37.498;2023-05-21T02:27:52;100364.72;;;11.39;81.55
65546;BME280;52177;55.968;37.498;2023-05-21T02:28:25;100368.22;;;11.39;81.63
65546;BME280;52177;55.968;37.498;2023-05-21T02:28:56;100364.72;;;11.39;81.73
65546;BME280;52177;55.968;37.498;2023-05-21T02:29:26;100367.38;;;11.39;81.63
65546;BME280;52177;55.968;37.498;2023-05-21T02:29:57;100372.56;;;11.40;81.64
65546;BME280;52177;55.968;37.498;2023-05-21T02:30:27;100368.22;;;11.39;81.56
65546;BME280;52177;55.968;37.498;2023-05-21T02:30:57;100369.91;;;11.40;81.52
65546;BME280;52177;55.968;37.498;2023-05-21T02:31:28;100367.38;;;11.39;81.47
65546;BME280;52177;55.968;37.498;2023-05-21T02:31:58;100364.88;;;11.37;81.46
65546;BME280;52177;55.968;37.498;2023-05-21T02:32:29;100366.72;;;11.37;81.66
65546;BME280;52177;55.968;37.498;2023-05-21T02:33:01;100368.56;;;11.36;81.68
65546;BME280;52177;55.968;37.498;2023-05-21T02:33:31;100367.19;;;11.32;81.66
65546;BME280;52177;55.968;37.498;2023-05-21T02:34:02;100367.19;;;11.32;81.67
65546;BME280;52177;55.968;37.498;2023-05-21T02:34:32;100364.53;;;11.32;81.94
65546;BME280;52177;55.968;37.498;2023-05-21T02:35:04;100365.38;;;11.33;81.98
65546;BME280;52177;55.968;37.498;2023-05-21T02:35:34;100360.69;;;11.35;81.80
65546;BME280;52177;55.968;37.498;2023-05-21T02:36:06;100369.72;;;11.34;81.78
65546;BME280;52177;55.968;37.498;2023-05-21T02:36:41;100365.38;;;11.33;81.86
65546;BME280;52177;55.968;37.498;2023-05-21T02:37:12;100367.19;;;11.32;81.77
65546;BME280;52177;55.968;37.498;2023-05-21T02:37:43;100364.53;;;11.32;81.86
65546;BME280;52177;55.968;37.498;2023-05-21T02:38:13;100369.03;;;11.32;82.05
65546;BME280;52177;55.968;37.498;2023-05-21T02:38:48;100371.88;;;11.30;82.08
65546;BME280;52177;55.968;37.498;2023-05-21T02:39:18;100363.88;;;11.30;82.10
65546;BME280;52177;55.968;37.498;2023-05-21T02:39:49;100371.03;;;11.30;82.22
65546;BME280;52177;55.968;37.498;2023-05-21T02:40:19;100358.72;;;11.29;82.26
65546;BME280;52177;55.968;37.498;2023-05-21T02:40:50;100362.22;;;11.29;82.18
65546;BME280;52177;55.968;37.498;2023-05-21T02:41:20;100363.03;;;11.30;82.27
65546;BME280;52177;55.968;37.498;2023-05-21T02:41:52;100363.88;;;11.30;82.32
65546;BME280;52177;55.968;37.498;2023-05-21T02:42:22;100362.06;;;11.31;82.22
65546;BME280;52177;55.968;37.498;2023-05-21T02:42:52;100367.19;;;11.32;82.20
65546;BME280;52177;55.968;37.498;2023-05-21T02:43:23;100363.72;;;11.32;82.15
65546;BME280;52177;55.968;37.498;2023-05-21T02:43:53;100365.22;;;11.34;82.21
65546;BME280;52177;55.968;37.498;2023-05-21T02:44:23;100367.72;;;11.36;82.13
65546;BME280;52177;55.968;37.498;2023-05-21T02:44:54;100361.53;;;11.35;81.89
65546;BME280;52177;55.968;37.498;2023-05-21T02:45:24;100362.38;;;11.36;82.16